Latest Weather Observations for Cape Flattery

IDQ60801

Issued at 9:05 pm EST Thursday 31 July 2014 (issued every 30 minutes, with the page automatically refreshed every 10 minutes)

About weather observations | Map of weather stations | Latest weather observations for QLD | Other Formats
Station Details ID: 031213 Name: CAPE FLATTERY Lat: -14.97 Lon: 145.31 Height: 18.5 m
Data from the previous 72 hours. | See also: Recent months at Cape Flattery
Date/Time
EST
Temp
°C
App
Temp
°C
Dew
Point
Rel
Hum
%
Delta-T
°C
Wind Press
QNH
hPa
Press
MSL
hPa
Rain
since 9 am
mm
Dir
 
Spd
km/h
Gust
km/h
Spd
kts
Gust
kts
31/09:00pm 22.6 22.6 19.0 80 2.3 SE 17 20 9 11 1017.1 1017.0 0.0
31/08:30pm 22.6 22.6 19.0 80 2.3 SE 17 22 9 12 1016.9 - 0.0
31/08:00pm 22.6 23.0 19.0 80 2.3 SSE 15 24 8 13 1016.4 - 0.0
31/07:30pm 22.7 23.1 18.9 79 2.4 SE 15 19 8 10 1016.1 - 0.0
31/07:00pm 22.7 23.0 18.7 78 2.5 SE 15 20 8 11 1015.7 - 0.0
31/06:30pm 23.0 22.2 18.5 76 2.8 SE 20 26 11 14 1015.6 - 0.0
31/06:00pm 23.7 22.8 19.0 75 3.0 SSE 22 28 12 15 1015.5 1015.4 0.0
31/05:30pm 24.8 24.3 19.2 71 3.6 SSE 20 26 11 14 1015.5 - 0.0
31/05:00pm 25.0 24.5 18.7 68 4.0 SE 19 24 10 13 1015.5 - 0.0
31/04:30pm 25.2 24.6 18.9 68 4.0 SSE 20 28 11 15 1015.5 - 0.0
31/04:00pm 25.8 24.6 19.2 67 4.2 SSE 24 30 13 16 1015.5 - 0.0
31/03:30pm 25.8 25.3 19.0 66 4.4 SE 20 26 11 14 1015.4 - 0.0
31/03:00pm 25.9 24.7 19.3 67 4.2 SE 24 30 13 16 1015.5 1015.4 0.0
31/02:30pm 25.6 24.7 19.0 67 4.2 SE 22 30 12 16 1015.7 - 0.0
31/02:00pm 26.0 25.6 19.4 67 4.3 SE 20 30 11 16 1015.7 - 0.0
31/01:30pm 26.0 24.5 19.4 67 4.3 SE 26 32 14 17 1016.0 - 0.0
31/01:00pm 26.7 26.7 20.1 67 4.3 SE 20 28 11 15 1016.4 - 0.0
31/12:30pm 26.3 25.8 19.9 68 4.2 SE 22 32 12 17 1016.8 - 0.0
31/12:00pm 26.0 24.6 19.6 68 4.1 SE 26 32 14 17 1017.1 1017.0 0.0
31/11:30am 26.1 25.6 20.0 69 4.0 SE 22 32 12 17 1017.4 - 0.0
31/11:00am 25.8 24.1 19.9 70 3.8 SE 28 33 15 18 1017.7 - 0.0
31/10:30am 25.9 25.4 20.7 73 3.4 SE 24 32 13 17 1018.0 - 0.0
31/10:00am 25.1 24.3 20.8 77 2.8 SE 26 33 14 18 1018.0 - 0.0
31/09:30am 24.8 25.4 21.3 81 2.3 SE 20 30 11 16 1017.9 - 0.0
31/09:00am 24.3 24.7 21.0 82 2.2 SE 20 28 11 15 1017.7 1017.6 0.8
31/08:30am 23.5 23.2 20.4 83 2.0 SE 22 30 12 16 1017.7 - 0.8
31/08:00am 23.2 23.8 20.3 84 1.9 SE 17 24 9 13 1017.4 - 0.8
31/07:30am 22.3 22.1 19.3 83 1.9 SE 19 24 10 13 1017.4 - 0.6
31/07:00am 22.8 22.9 19.2 80 2.3 SE 17 24 9 13 1017.2 - 0.0
31/06:30am 22.5 21.0 18.5 78 2.5 SE 24 37 13 20 1017.0 - 0.0
31/06:00am 22.9 23.3 18.9 78 2.5 SE 15 20 8 11 1016.7 1016.6 0.0
31/05:30am 22.9 22.5 18.9 78 2.5 SE 19 26 10 14 1016.6 - 0.0
31/05:00am 22.9 23.3 18.9 78 2.5 SE 15 20 8 11 1016.6 - 0.0
31/04:30am 22.6 23.6 18.6 78 2.5 SE 11 15 6 8 1016.7 - 0.0
31/04:00am 22.6 22.2 18.8 79 2.4 SE 19 24 10 13 1016.7 - 0.0
31/03:30am 22.7 23.0 18.7 78 2.5 SE 15 20 8 11 1016.8 - 0.0
31/03:00am 23.1 22.5 18.8 77 2.7 SE 20 26 11 14 1016.8 1016.7 0.0
31/02:30am 23.1 22.6 19.1 78 2.5 SE 20 28 11 15 1016.9 - 0.0
31/02:00am 22.9 22.3 18.9 78 2.5 SE 20 28 11 15 1017.0 - 0.0
31/01:30am 22.7 22.1 18.5 77 2.6 SE 19 26 10 14 1017.3 - 0.0
31/01:00am 23.0 22.3 18.7 77 2.7 SE 20 32 11 17 1017.4 - 0.0
31/12:30am 23.1 22.8 19.1 78 2.5 SE 19 26 10 14 1017.5 - 0.0
31/12:00am 23.1 22.0 18.6 76 2.8 SE 22 30 12 16 1017.7 1017.6 0.0
 
Date/Time
EST
Temp
°C
App
Temp
°C
Dew
Point
Rel
Hum
%
Delta-T
°C
Wind Press
QNH
hPa
Press
MSL
hPa
Rain
since 9 am
mm
Dir
 
Spd
km/h
Gust
km/h
Spd
kts
Gust
kts
30/11:30pm 23.1 22.0 18.6 76 2.8 SE 22 32 12 17 1017.8 - 0.0
30/11:00pm 22.9 21.5 18.7 77 2.7 SE 24 32 13 17 1017.9 - 0.0
30/10:30pm 22.7 21.9 18.5 77 2.6 ESE 20 26 11 14 1018.0 - 0.0
30/10:00pm 23.0 22.3 18.7 77 2.7 SE 20 28 11 15 1017.9 - 0.0
30/09:30pm 22.8 22.1 18.6 77 2.6 SE 20 26 11 14 1017.9 - 0.0
30/09:00pm 22.8 22.1 18.6 77 2.6 SE 20 28 11 15 1017.6 1017.5 0.0
30/08:30pm 22.7 21.9 18.5 77 2.6 SE 20 26 11 14 1017.4 - 0.0
30/08:00pm 22.7 21.9 18.5 77 2.6 SE 20 28 11 15 1017.3 - 0.0
30/07:30pm 22.8 21.9 18.3 76 2.8 SE 20 26 11 14 1017.0 - 0.0
30/07:00pm 22.8 21.4 17.9 74 3.1 SE 22 33 12 18 1016.8 - 0.0
30/06:30pm 22.9 21.4 17.8 73 3.2 SE 22 30 12 16 1016.7 - 0.0
30/06:00pm 23.3 21.9 18.0 72 3.3 SE 22 30 12 16 1016.4 1016.3 0.0
30/05:30pm 23.6 21.4 17.8 70 3.6 SE 26 35 14 19 1016.4 - 0.0
30/05:00pm 24.1 21.6 18.1 69 3.8 SE 28 35 15 19 1016.2 - 0.0
30/04:30pm 24.0 21.9 18.0 69 3.8 SE 26 35 14 19 1016.1 - 0.0
30/04:00pm 25.8 24.0 18.7 65 4.5 SE 26 35 14 19 1016.0 - 0.0
30/03:30pm 26.2 24.3 18.6 63 4.8 SE 26 37 14 20 1016.1 - 0.0
30/03:00pm 25.8 23.0 18.2 63 4.8 SE 30 37 16 20 1016.1 1016.0 0.0
30/02:30pm 26.4 23.9 18.8 63 4.9 SE 30 35 16 19 1016.4 - 0.0
30/02:00pm 25.8 24.3 18.5 64 4.6 SE 24 32 13 17 1016.8 - 0.0
30/01:30pm 26.7 24.3 18.3 60 5.3 SE 28 35 15 19 1017.2 - 0.0
30/01:00pm 27.1 25.3 18.7 60 5.4 SE 26 35 14 19 1017.4 - 0.0
30/12:30pm 26.1 23.5 17.7 60 5.3 SE 28 35 15 19 1017.7 - 0.0
30/12:00pm 27.1 24.7 19.2 62 5.1 SE 30 39 16 21 1018.0 1017.9 0.0
30/11:30am 26.7 24.7 19.1 63 4.9 SE 28 37 15 20 1018.3 - 0.0
30/11:00am 26.5 24.6 19.4 65 4.6 ESE 28 37 15 20 1018.6 - 0.0
30/10:30am 26.6 25.0 19.2 64 4.8 SE 26 39 14 21 1019.0 - 0.0
30/10:00am 25.9 24.3 19.1 66 4.4 SE 26 35 14 19 1019.1 - 0.0
30/09:30am 25.5 24.3 19.2 68 4.0 SE 24 32 13 17 1019.2 - 0.0
30/09:00am 24.9 23.0 18.6 68 4.0 SE 26 37 14 20 1019.2 1019.1 0.0
30/08:30am 24.5 22.7 18.7 70 3.7 SE 26 33 14 18 1018.9 - 0.0
30/08:00am 23.7 22.2 18.6 73 3.2 SE 24 37 13 20 1018.7 - 0.0
30/07:30am 23.3 21.7 18.4 74 3.1 SE 24 32 13 17 1018.4 - 0.0
30/07:00am 22.9 21.2 18.2 75 2.9 SE 24 35 13 19 1018.2 - 0.0
30/06:30am 22.5 21.3 17.6 74 3.0 SE 20 30 11 16 1018.0 - 0.0
30/06:00am 22.6 21.0 17.5 73 3.2 SE 22 30 12 16 1017.7 1017.6 0.0
30/05:30am 22.3 21.0 17.2 73 3.1 SE 20 28 11 15 1017.5 - 0.0
30/05:00am 22.6 21.4 17.5 73 3.2 SE 20 28 11 15 1017.3 - 0.0
30/04:30am 22.7 21.1 17.4 72 3.3 SE 22 32 12 17 1017.2 - 0.0
30/04:00am 22.6 20.9 17.3 72 3.3 SE 22 28 12 15 1017.1 - 0.0
30/03:30am 22.5 20.7 17.0 71 3.4 SE 22 32 12 17 1017.2 - 0.0
30/03:00am 22.6 20.8 16.9 70 3.5 SE 22 30 12 16 1017.4 1017.3 0.0
30/02:30am 22.7 20.9 16.9 70 3.6 SE 22 30 12 16 1017.6 - 0.0
30/02:00am 22.7 21.3 16.9 70 3.6 ESE 20 28 11 15 1018.0 - 0.0
30/01:30am 22.7 21.3 16.9 70 3.6 ESE 20 30 11 16 1018.2 - 0.0
30/01:00am 22.8 21.0 17.0 70 3.6 SE 22 32 12 17 1018.6 - 0.0
30/12:30am 22.7 20.4 16.7 69 3.7 SE 24 33 13 18 1018.7 - 0.0
30/12:00am 22.8 20.3 17.0 70 3.6 SE 26 35 14 19 1018.9 1018.8 0.0
 
Date/Time
EST
Temp
°C
App
Temp
°C
Dew
Point
Rel
Hum
%
Delta-T
°C
Wind Press
QNH
hPa
Press
MSL
hPa
Rain
since 9 am
mm
Dir
 
Spd
km/h
Gust
km/h
Spd
kts
Gust
kts
29/11:30pm 22.7 21.1 17.4 72 3.3 SE 22 32 12 17 1018.9 - 0.0
29/11:00pm 22.6 20.9 17.1 71 3.4 SE 22 30 12 16 1019.0 - 0.0
29/10:30pm 22.6 20.8 16.9 70 3.5 SE 22 28 12 15 1019.1 - 0.0
29/10:00pm 22.8 21.0 17.0 70 3.6 SE 22 32 12 17 1019.1 - 0.0
29/09:30pm 22.9 20.8 17.1 70 3.6 SE 24 32 13 17 1019.1 - 0.0
29/09:00pm 22.8 21.0 17.0 70 3.6 SE 22 32 12 17 1018.9 1018.8 0.0
29/08:30pm 22.9 20.7 16.9 69 3.7 SE 24 33 13 18 1018.8 - 0.0
29/08:00pm 22.9 21.1 16.9 69 3.7 SE 22 32 12 17 1018.5 - 0.0
29/07:30pm 23.0 20.8 16.8 68 3.8 SE 24 32 13 17 1018.3 - 0.0
29/07:00pm 23.1 20.9 16.9 68 3.8 SE 24 32 13 17 1017.9 - 0.0
29/06:30pm 23.0 21.0 16.5 67 4.0 SE 22 32 12 17 1017.7 - 0.0
29/06:00pm 23.3 21.4 16.6 66 4.1 SE 22 30 12 16 1017.6 1017.5 0.0
29/05:30pm 23.8 21.2 16.8 65 4.3 SE 26 35 14 19 1017.4 - 0.0
29/05:00pm 24.5 22.5 17.5 65 4.4 SE 24 35 13 19 1017.2 - 0.0
29/04:30pm 24.5 22.2 17.7 66 4.3 SE 26 35 14 19 1017.1 - 0.0
29/04:00pm 24.6 22.9 18.1 67 4.1 SE 24 33 13 18 1017.0 - 0.0
29/03:30pm 24.8 23.2 18.3 67 4.1 SE 24 32 13 17 1017.1 - 0.0
29/03:00pm 25.4 22.4 18.6 66 4.3 SSE 32 39 17 21 1017.5 1017.4 0.0
29/02:30pm 25.8 23.7 19.0 66 4.4 SE 28 39 15 21 1017.7 - 0.0
29/02:00pm 25.8 22.6 18.2 63 4.8 SE 32 44 17 24 1018.1 - 0.0
29/01:30pm 25.8 23.3 18.0 62 4.9 SE 28 39 15 21 1018.5 - 0.0
29/01:00pm 26.5 24.5 18.4 61 5.2 ESE 26 39 14 21 1018.8 - 0.0
29/12:30pm 26.1 23.2 18.0 61 5.1 SE 30 37 16 20 1019.0 - 0.0
29/12:00pm 25.0 22.9 18.0 65 4.4 SE 26 37 14 20 1019.4 1019.3 0.0
29/11:30am 26.2 23.8 19.1 65 4.6 SE 30 39 16 21 1019.7 - 0.0
29/11:00am 24.8 22.3 18.0 66 4.3 SE 28 37 15 20 1020.1 - 0.0
29/10:30am 25.7 23.2 18.9 66 4.3 SE 30 39 16 21 1020.2 - 0.0
29/10:00am 25.5 23.1 19.2 68 4.0 SE 30 41 16 22 1020.3 - 0.0
29/09:30am 25.1 23.1 19.2 70 3.8 SE 28 37 15 20 1020.3 - 0.0
29/09:00am 24.7 22.7 19.1 71 3.6 SE 28 41 15 22 1020.2 1020.1 0.8
29/08:30am 24.4 23.2 19.2 73 3.3 SE 24 33 13 18 1019.9 - 0.8
29/08:00am 23.7 22.0 19.0 75 3.0 SE 26 35 14 19 1019.5 - 0.8
29/07:30am 23.1 22.2 19.1 78 2.5 SE 22 32 12 17 1019.2 - 0.8
29/07:00am 22.6 21.1 18.6 78 2.5 SE 24 35 13 19 1018.9 - 0.8
29/06:30am 22.7 20.5 18.7 78 2.5 SE 28 37 15 20 1018.4 - 0.8
29/06:00am 22.6 20.1 18.8 79 2.4 SE 30 37 16 20 1018.0 1017.9 0.8
29/05:30am 22.5 19.9 18.7 79 2.4 SE 30 39 16 21 1017.6 - 0.8
29/05:00am 22.6 20.5 19.0 80 2.3 SE 28 41 15 22 1017.3 - 0.8
29/04:30am 22.7 21.1 19.1 80 2.3 SE 26 37 14 20 1017.2 - 0.8
29/04:00am 22.6 21.4 19.2 81 2.2 SE 24 37 13 20 1017.1 - 0.8
29/03:30am 22.5 20.9 19.1 81 2.2 SE 26 39 14 21 1017.1 - 0.8
29/03:00am 22.6 21.5 19.4 82 2.0 SE 24 33 13 18 1017.1 1017.0 0.8
29/02:30am 22.4 21.3 19.4 83 1.9 SE 24 33 13 18 1017.0 - 0.8
29/02:00am 22.4 21.3 19.4 83 1.9 SE 24 33 13 18 1017.4 - 0.8
29/01:30am 22.5 21.4 19.5 83 1.9 SE 24 30 13 16 1017.6 - 0.8
29/01:00am 22.1 21.2 19.1 83 1.9 SE 22 32 12 17 1017.9 - 0.8
29/12:30am 22.5 22.2 19.5 83 1.9 SE 20 28 11 15 1018.4 - 0.8
29/12:00am 22.2 21.7 19.2 83 1.9 SE 20 28 11 15 1018.6 1018.5 0.8
 
Date/Time
EST
Temp
°C
App
Temp
°C
Dew
Point
Rel
Hum
%
Delta-T
°C
Wind Press
QNH
hPa
Press
MSL
hPa
Rain
since 9 am
mm
Dir
 
Spd
km/h
Gust
km/h
Spd
kts
Gust
kts
28/11:30pm 22.2 21.7 19.2 83 1.9 SE 20 30 11 16 1018.8 - 0.8
28/11:00pm 21.9 20.8 18.7 82 2.0 SE 22 32 12 17 1018.8 - 0.8
28/10:30pm 21.3 19.1 17.9 81 2.1 SE 26 50 14 27 1018.9 - 0.8
28/10:00pm 23.3 22.6 19.5 79 2.4 SE 22 30 12 16 1018.8 - 0.0
28/09:30pm 23.0 21.7 19.0 78 2.5 SE 24 33 13 18 1018.9 - 0.0

Other Formats:

Comma delimited format used in spreadsheet applications
http://www.bom.gov.au/fwo/IDQ60801/IDQ60801.94188.axf

JavaScript Object Notation format (JSON) in row-major order
http://www.bom.gov.au/fwo/IDQ60801/IDQ60801.94188.json